createdAt,value
2018-04-25T00:02:07.254Z,12.50
2018-04-25T00:04:34.746Z,12.51
2018-04-25T00:07:02.308Z,12.50
2018-04-25T00:09:29.811Z,12.49
2018-04-25T00:11:57.296Z,12.49
2018-04-25T00:14:24.749Z,12.46
2018-04-25T00:16:52.203Z,12.42
2018-04-25T00:19:19.676Z,12.41
2018-04-25T00:21:47.165Z,12.39
2018-04-25T00:24:14.626Z,12.38
2018-04-25T00:26:42.092Z,12.37
2018-04-25T00:29:09.730Z,12.39
2018-04-25T00:31:37.290Z,12.37
2018-04-25T00:34:04.776Z,12.33
2018-04-25T00:36:32.272Z,12.34
2018-04-25T00:38:59.854Z,12.36
2018-04-25T00:41:27.412Z,12.36
2018-04-25T00:43:54.869Z,12.39
2018-04-25T00:46:22.328Z,12.43
2018-04-25T00:48:49.891Z,12.47
2018-04-25T00:51:17.345Z,12.48
2018-04-25T00:53:44.826Z,12.49
2018-04-25T00:56:12.343Z,12.49
2018-04-25T00:58:39.799Z,12.49
2018-04-25T01:01:07.341Z,12.48
2018-04-25T01:03:34.811Z,12.49
2018-04-25T01:06:02.312Z,12.51
2018-04-25T01:08:29.827Z,12.49
2018-04-25T01:10:57.323Z,12.43
2018-04-25T01:13:24.837Z,12.41
2018-04-25T01:15:52.300Z,12.43
2018-04-25T01:18:19.783Z,12.42
2018-04-25T01:20:47.411Z,12.38
2018-04-25T01:23:24.679Z,12.32
2018-04-25T01:25:58.305Z,12.29
2018-04-25T01:28:25.855Z,12.26
2018-04-25T01:30:59.738Z,12.26
2018-04-25T01:33:28.025Z,12.29
2018-04-25T01:35:58.268Z,12.29
2018-04-25T01:38:27.747Z,12.29
2018-04-25T01:40:55.388Z,12.25
2018-04-25T01:43:23.025Z,12.24
2018-04-25T01:49:31.575Z,12.20
2018-04-25T01:52:10.889Z,12.18
2018-04-25T01:54:50.121Z,12.17
2018-04-25T01:57:29.280Z,12.16
2018-04-25T02:00:08.445Z,12.15
2018-04-25T02:02:35.448Z,12.15
2018-04-25T02:05:02.921Z,12.14
2018-04-25T02:07:30.395Z,12.11
2018-04-25T02:09:57.928Z,12.09
2018-04-25T02:12:25.485Z,12.06
2018-04-25T02:14:52.971Z,12.06
2018-04-25T02:17:20.452Z,12.04
2018-04-25T02:19:47.950Z,12.05
2018-04-25T02:22:15.444Z,12.09
2018-04-25T02:24:42.898Z,12.12
2018-04-25T02:27:10.388Z,12.14
2018-04-25T02:29:37.956Z,12.15
2018-04-25T02:32:05.531Z,12.17
2018-04-25T02:34:32.991Z,12.17
2018-04-25T02:37:00.487Z,12.19
2018-04-25T02:39:27.980Z,12.19
2018-04-25T02:41:55.460Z,12.20
2018-04-25T02:44:22.985Z,12.21
2018-04-25T02:46:50.470Z,12.21
2018-04-25T02:49:17.957Z,12.23
2018-04-25T02:51:45.524Z,12.24
2018-04-25T02:54:13.035Z,12.25
2018-04-25T02:56:40.489Z,12.25
2018-04-25T02:59:07.974Z,12.25
2018-04-25T03:01:35.461Z,12.26
2018-04-25T03:04:02.922Z,12.25
2018-04-25T03:06:30.404Z,12.21
2018-04-25T03:08:57.929Z,12.20
2018-04-25T03:11:25.482Z,12.18
2018-04-25T03:13:52.943Z,12.14
2018-04-25T03:16:20.463Z,12.16
2018-04-25T03:18:47.955Z,12.16
2018-04-25T03:21:15.438Z,12.18
2018-04-25T03:23:43.077Z,12.18
2018-04-25T03:26:10.564Z,12.14
2018-04-25T03:28:38.017Z,12.17
2018-04-25T03:31:05.499Z,12.17
2018-04-25T03:33:32.960Z,12.19
2018-04-25T03:36:00.462Z,12.21
2018-04-25T03:38:27.943Z,12.20
2018-04-25T03:40:55.461Z,12.22
2018-04-25T03:43:22.961Z,12.23
2018-04-25T03:45:50.411Z,12.19
2018-04-25T03:48:17.922Z,12.20
2018-04-25T03:50:45.421Z,12.22
2018-04-25T03:53:12.903Z,12.20
2018-04-25T03:55:40.400Z,12.18
2018-04-25T03:58:07.896Z,12.21
2018-04-25T04:00:35.399Z,12.23
2018-04-25T04:03:02.897Z,12.26
2018-04-25T04:05:30.360Z,12.28
2018-04-25T04:07:57.845Z,12.22
2018-04-25T04:10:25.334Z,12.25
2018-04-25T04:12:52.810Z,12.23
2018-04-25T04:15:20.378Z,12.23
2018-04-25T04:17:47.911Z,12.24
2018-04-25T04:20:15.385Z,12.24
2018-04-25T04:22:42.843Z,12.21
2018-04-25T04:25:10.342Z,12.19
2018-04-25T04:27:37.872Z,12.23
2018-04-25T04:30:05.431Z,12.20
2018-04-25T04:32:32.894Z,12.22
2018-04-25T04:35:00.406Z,12.24
2018-04-25T04:37:27.884Z,12.28
2018-04-25T04:39:55.373Z,12.33
2018-04-25T04:42:22.888Z,12.39
2018-04-25T04:44:50.347Z,12.42
2018-04-25T04:47:17.928Z,12.47
2018-04-25T04:49:45.383Z,12.49
2018-04-25T04:52:12.964Z,12.54
2018-04-25T04:54:40.469Z,12.55
2018-04-25T04:57:07.919Z,12.60
2018-04-25T04:59:35.427Z,12.63
2018-04-25T05:02:02.889Z,12.66
2018-04-25T05:04:30.390Z,12.71
2018-04-25T05:06:57.850Z,12.74
2018-04-25T05:09:25.394Z,12.73
2018-04-25T05:11:52.877Z,12.77
2018-04-25T05:14:20.357Z,12.83
2018-04-25T05:16:47.929Z,12.86
2018-04-25T05:19:15.408Z,12.89
2018-04-25T05:21:42.924Z,12.92
2018-04-25T05:24:10.528Z,12.94
2018-04-25T05:26:38.016Z,12.99
2018-04-25T05:29:05.596Z,13.01
2018-04-25T05:31:33.079Z,13.04
2018-04-25T05:34:00.551Z,13.02
2018-04-25T05:36:28.076Z,13.01
2018-04-25T05:38:55.531Z,13.03
2018-04-25T05:41:23.011Z,13.02
2018-04-25T05:43:50.520Z,13.09
2018-04-25T05:46:18.008Z,13.14
2018-04-25T05:48:45.596Z,13.07
2018-04-25T05:51:13.088Z,13.03
2018-04-25T05:53:40.584Z,13.00
2018-04-25T05:56:08.083Z,13.04
2018-04-25T05:58:35.530Z,13.03
2018-04-25T06:01:03.125Z,13.04
2018-04-25T06:03:30.608Z,13.09
2018-04-25T06:05:58.051Z,13.17
2018-04-25T06:08:25.540Z,13.18
2018-04-25T06:10:53.074Z,13.20
2018-04-25T06:13:20.579Z,13.27
2018-04-25T06:15:48.036Z,13.30
2018-04-25T06:18:15.591Z,13.30
2018-04-25T06:20:43.076Z,13.36
2018-04-25T06:23:10.667Z,13.42
2018-04-25T06:25:38.154Z,13.43
2018-04-25T06:28:05.698Z,13.46
2018-04-25T06:30:33.222Z,13.46
2018-04-25T06:33:00.793Z,13.48
2018-04-25T06:35:28.258Z,13.50
2018-04-25T06:37:55.833Z,13.52
2018-04-25T06:40:23.282Z,13.56
2018-04-25T06:42:50.735Z,13.62
2018-04-25T06:45:18.208Z,13.67
2018-04-25T06:47:45.709Z,13.75
2018-04-25T06:50:13.195Z,13.85
2018-04-25T06:52:40.676Z,13.92
2018-04-25T06:55:08.236Z,13.96
2018-04-25T06:57:35.699Z,13.96
2018-04-25T07:00:03.176Z,13.89
2018-04-25T07:02:30.640Z,13.79
2018-04-25T07:04:58.120Z,13.69
2018-04-25T07:07:25.591Z,13.67
2018-04-25T07:09:53.083Z,13.68
2018-04-25T07:12:20.558Z,13.70
2018-04-25T07:14:48.056Z,13.76
2018-04-25T07:17:15.654Z,13.84
2018-04-25T07:19:43.116Z,13.95
2018-04-25T07:22:10.576Z,14.01
2018-04-25T07:24:38.263Z,14.03
2018-04-25T07:27:05.717Z,14.08
2018-04-25T07:29:33.211Z,14.13
2018-04-25T07:32:00.710Z,14.18
2018-04-25T07:34:28.200Z,14.19
2018-04-25T07:36:55.689Z,14.23
2018-04-25T07:39:23.163Z,14.25
2018-04-25T07:41:50.723Z,14.30
2018-04-25T07:44:18.150Z,14.37
2018-04-25T07:46:45.658Z,14.43
2018-04-25T07:49:13.160Z,14.48
2018-04-25T07:51:40.612Z,14.53
2018-04-25T07:54:08.136Z,14.53
2018-04-25T07:56:35.625Z,14.55
2018-04-25T07:59:03.196Z,14.58
2018-04-25T08:01:30.689Z,14.63
2018-04-25T08:03:58.135Z,14.72
2018-04-25T08:06:25.604Z,14.74
2018-04-25T08:08:53.105Z,14.81
2018-04-25T08:11:20.572Z,14.94
2018-04-25T08:13:59.792Z,15.25
2018-04-25T08:16:39.057Z,15.58
2018-04-25T08:19:18.382Z,15.95
2018-04-25T08:21:45.889Z,16.33
2018-04-25T08:24:13.406Z,16.54
2018-04-25T08:26:40.932Z,16.54
2018-04-25T08:29:08.444Z,16.58
2018-04-25T08:31:35.920Z,16.59
2018-04-25T08:34:03.412Z,16.53
2018-04-25T08:36:30.939Z,16.41
2018-04-25T08:38:58.416Z,16.29
2018-04-25T08:41:25.980Z,16.13
2018-04-25T08:43:53.568Z,16.06
2018-04-25T08:46:21.023Z,16.15
2018-04-25T08:48:48.530Z,16.50
2018-04-25T08:51:16.045Z,16.89
2018-04-25T08:53:43.552Z,17.22
2018-04-25T08:56:11.041Z,17.36
2018-04-25T08:58:38.541Z,17.42
2018-04-25T09:01:06.030Z,17.24
2018-04-25T09:03:33.578Z,17.35
2018-04-25T09:06:01.075Z,17.40
2018-04-25T09:08:28.536Z,17.60
2018-04-25T09:10:56.021Z,17.89
2018-04-25T09:13:23.481Z,18.12
2018-04-25T09:15:50.969Z,18.20
2018-04-25T09:18:18.477Z,18.59
2018-04-25T09:20:45.953Z,18.66
2018-04-25T09:23:14.145Z,18.72
2018-04-25T09:25:41.776Z,18.81
2018-04-25T09:28:09.249Z,18.63
2018-04-25T09:30:36.696Z,18.38
2018-04-25T09:33:04.180Z,18.60
2018-04-25T09:35:31.655Z,18.91
2018-04-25T09:37:59.167Z,19.03
2018-04-25T09:40:26.649Z,19.01
2018-04-25T09:42:54.145Z,19.12
2018-04-25T09:45:21.619Z,19.59
2018-04-25T09:47:49.081Z,20.17
2018-04-25T09:50:16.648Z,20.57
2018-04-25T09:52:44.214Z,20.25
2018-04-25T09:55:11.699Z,20.25
2018-04-25T09:57:39.217Z,20.44
2018-04-25T10:00:06.686Z,20.44
2018-04-25T10:02:34.172Z,20.34
2018-04-25T10:05:01.688Z,19.95
2018-04-25T10:07:29.244Z,19.53
2018-04-25T10:09:56.738Z,19.28
2018-04-25T10:12:24.235Z,19.07
2018-04-25T10:14:51.710Z,19.13
2018-04-25T10:17:19.305Z,19.11
2018-04-25T10:19:46.833Z,19.24
2018-04-25T10:22:14.292Z,19.35
2018-04-25T10:24:41.808Z,19.35
2018-04-25T10:27:09.285Z,19.58
2018-04-25T10:29:36.764Z,19.64
2018-04-25T10:32:04.318Z,19.41
2018-04-25T10:34:31.740Z,19.16
2018-04-25T10:36:59.258Z,19.30
2018-04-25T10:39:26.799Z,19.31
2018-04-25T10:41:54.256Z,19.30
2018-04-25T10:44:21.737Z,19.39
2018-04-25T10:46:49.203Z,19.64
2018-04-25T10:49:16.677Z,19.80
2018-04-25T10:51:44.546Z,19.60
2018-04-25T10:54:12.035Z,19.44
2018-04-25T10:56:39.532Z,19.25
2018-04-25T10:59:06.981Z,19.17
2018-04-25T11:01:34.452Z,18.82
2018-04-25T11:04:01.935Z,18.61
2018-04-25T11:06:29.418Z,18.49
2018-04-25T11:08:56.940Z,18.10
2018-04-25T11:11:24.425Z,17.22
2018-04-25T11:13:51.871Z,16.29
2018-04-25T11:16:19.369Z,15.52
2018-04-25T11:18:46.859Z,14.98
2018-04-25T11:21:14.382Z,14.56
2018-04-25T11:23:41.873Z,14.25
2018-04-25T11:26:09.343Z,14.06
2018-04-25T11:28:36.855Z,13.74
2018-04-25T11:31:04.432Z,13.61
2018-04-25T11:33:32.024Z,13.50
2018-04-25T11:35:59.528Z,13.50
2018-04-25T11:38:27.006Z,13.58
2018-04-25T11:40:54.443Z,13.74
2018-04-25T11:43:21.919Z,13.96
2018-04-25T11:45:49.454Z,14.22
2018-04-25T11:48:16.947Z,14.53
2018-04-25T11:50:44.486Z,14.85
2018-04-25T11:53:11.959Z,15.14
2018-04-25T11:55:39.494Z,15.57
2018-04-25T11:58:07.031Z,16.11
2018-04-25T12:00:34.510Z,16.01
2018-04-25T12:03:01.987Z,15.94
2018-04-25T12:05:29.507Z,16.04
2018-04-25T12:07:57.103Z,16.17
2018-04-25T12:12:58.440Z,16.57
2018-04-25T12:15:25.981Z,16.77
2018-04-25T12:17:53.452Z,16.91
2018-04-25T12:20:20.987Z,16.75
2018-04-25T12:22:48.512Z,16.73
2018-04-25T12:25:16.005Z,16.91
2018-04-25T12:27:43.502Z,17.12
2018-04-25T12:30:11.001Z,17.39
2018-04-25T12:32:38.492Z,17.70
2018-04-25T12:35:05.947Z,17.84
2018-04-25T12:37:33.448Z,17.87
2018-04-25T12:40:00.956Z,17.92
2018-04-25T12:42:28.407Z,17.56
2018-04-25T12:44:55.875Z,17.47
2018-04-25T12:47:23.324Z,17.23
2018-04-25T12:49:50.828Z,16.94
2018-04-25T12:52:18.331Z,16.79
2018-04-25T12:54:45.821Z,16.66
2018-04-25T12:57:14.449Z,16.59
2018-04-25T12:59:41.948Z,16.46
2018-04-25T13:02:09.461Z,16.50
2018-04-25T13:04:36.919Z,16.51
2018-04-25T13:07:04.396Z,16.65
2018-04-25T13:09:31.912Z,16.94
2018-04-25T13:11:59.443Z,17.25
2018-04-25T13:14:26.894Z,17.62
2018-04-25T13:16:54.381Z,17.86
2018-04-25T13:19:21.832Z,17.71
2018-04-25T13:21:49.370Z,17.42
2018-04-25T13:24:16.822Z,17.47
2018-04-25T13:26:44.299Z,17.81
2018-04-25T13:29:11.835Z,18.09
2018-04-25T13:31:39.336Z,17.77
2018-04-25T13:34:06.786Z,17.56
2018-04-25T13:36:34.287Z,17.48
2018-04-25T13:39:01.771Z,17.48
2018-04-25T13:41:29.254Z,17.35
2018-04-25T13:43:56.816Z,17.27
2018-04-25T13:46:24.329Z,17.11
2018-04-25T13:48:51.840Z,17.03
2018-04-25T13:51:19.423Z,17.07
2018-04-25T13:53:46.897Z,17.12
2018-04-25T13:56:14.404Z,16.88
2018-04-25T13:58:41.888Z,16.75
2018-04-25T14:01:09.459Z,16.84
2018-04-25T14:03:36.954Z,16.63
2018-04-25T14:06:04.420Z,16.66
2018-04-25T14:08:31.948Z,16.74
2018-04-25T14:10:59.446Z,16.35
2018-04-25T14:13:26.952Z,16.40
2018-04-25T14:15:54.467Z,16.59
2018-04-25T14:18:22.020Z,16.75
2018-04-25T14:20:49.941Z,16.71
2018-04-25T14:23:17.465Z,16.65
2018-04-25T14:25:45.047Z,16.46
2018-04-25T14:28:12.579Z,16.28
2018-04-25T14:30:40.089Z,16.27
2018-04-25T14:33:07.586Z,16.05
2018-04-25T14:35:35.031Z,15.93
2018-04-25T14:38:02.499Z,15.75
2018-04-25T14:40:29.968Z,15.73
2018-04-25T14:42:57.478Z,15.72
2018-04-25T14:45:24.947Z,15.75
2018-04-25T14:47:52.473Z,15.40
2018-04-25T14:50:19.983Z,15.26
2018-04-25T14:52:47.510Z,15.41
2018-04-25T14:55:14.980Z,15.65
2018-04-25T14:57:42.529Z,15.78
2018-04-25T15:00:10.087Z,15.87
2018-04-25T15:02:37.620Z,15.98
2018-04-25T15:05:05.147Z,15.95
2018-04-25T15:07:32.630Z,15.84
2018-04-25T15:10:00.192Z,15.88
2018-04-25T15:12:27.783Z,15.98
2018-04-25T15:14:55.274Z,15.89
2018-04-25T15:17:22.792Z,15.88
2018-04-25T15:19:50.326Z,15.91
2018-04-25T15:22:17.760Z,16.26
2018-04-25T15:24:45.276Z,15.97
2018-04-25T15:27:12.726Z,16.70
2018-04-25T15:29:40.185Z,17.57
2018-04-25T15:32:07.645Z,18.09
2018-04-25T15:34:35.192Z,18.53
2018-04-25T15:37:02.634Z,18.49
2018-04-25T15:39:30.138Z,18.37
2018-04-25T15:41:57.773Z,18.85
2018-04-25T15:44:25.265Z,18.99
2018-04-25T15:46:52.734Z,18.44
2018-04-25T15:49:20.250Z,17.57
2018-04-25T15:51:47.740Z,17.12
2018-04-25T15:54:15.191Z,17.26
2018-04-25T15:56:42.714Z,17.76
2018-04-25T15:59:10.202Z,17.75
2018-04-25T16:01:37.767Z,17.70
2018-04-25T16:04:05.306Z,17.47
2018-04-25T16:06:32.793Z,17.23
2018-04-25T16:09:00.251Z,16.58
2018-04-25T16:11:27.737Z,15.97
2018-04-25T16:13:55.340Z,15.34
2018-04-25T16:16:23.056Z,14.86
2018-04-25T16:18:50.557Z,14.78
2018-04-25T16:21:18.120Z,14.64
2018-04-25T16:23:45.543Z,14.59
2018-04-25T16:26:13.153Z,14.51
2018-04-25T16:28:40.681Z,14.41
2018-04-25T16:31:08.212Z,14.32
2018-04-25T16:33:35.646Z,14.25
2018-04-25T16:36:03.192Z,14.33
2018-04-25T16:38:30.655Z,14.51
2018-04-25T16:40:58.176Z,14.46
2018-04-25T16:43:25.684Z,14.36
2018-04-25T16:45:53.209Z,14.41
2018-04-25T16:48:20.649Z,14.23
2018-04-25T16:50:48.174Z,13.93
2018-04-25T16:53:15.670Z,13.64
2018-04-25T16:55:43.188Z,13.51
2018-04-25T16:58:10.716Z,13.50
2018-04-25T17:00:38.205Z,13.48
2018-04-25T17:03:05.691Z,13.54
2018-04-25T17:05:33.284Z,13.51
2018-04-25T17:08:00.754Z,13.41
2018-04-25T17:10:28.201Z,13.33
2018-04-25T17:12:55.658Z,13.25
2018-04-25T17:15:23.188Z,13.24
2018-04-25T17:17:50.713Z,13.22
2018-04-25T17:20:18.233Z,13.20
2018-04-25T17:22:45.722Z,13.11
2018-04-25T17:25:13.250Z,13.15
2018-04-25T17:27:40.748Z,13.19
2018-04-25T17:30:08.239Z,13.10
2018-04-25T17:32:35.719Z,13.04
2018-04-25T17:35:03.252Z,12.95
2018-04-25T17:37:30.746Z,12.91
2018-04-25T17:39:58.238Z,12.91
2018-04-25T17:42:25.791Z,12.92
2018-04-25T17:44:53.619Z,12.88
2018-04-25T17:47:21.990Z,12.80
2018-04-25T17:49:49.472Z,12.74
2018-04-25T17:52:16.963Z,12.70
2018-04-25T17:54:44.439Z,12.66
2018-04-25T17:57:11.969Z,12.61
2018-04-25T17:59:39.520Z,12.55
2018-04-25T18:02:07.003Z,12.47
2018-04-25T18:04:34.508Z,12.47
2018-04-25T18:07:02.045Z,12.46
2018-04-25T18:09:29.928Z,12.41
2018-04-25T18:11:57.495Z,12.34
2018-04-25T18:14:24.984Z,12.36
2018-04-25T18:16:52.480Z,12.31
2018-04-25T18:19:19.907Z,12.23
2018-04-25T18:21:47.368Z,12.24
2018-04-25T18:24:14.819Z,12.21
2018-04-25T18:26:43.077Z,12.16
2018-04-25T18:29:10.844Z,12.16
2018-04-25T18:31:38.884Z,12.14
2018-04-25T18:34:06.424Z,12.12
2018-04-25T18:36:33.915Z,12.09
2018-04-25T18:39:01.436Z,12.11
2018-04-25T18:41:28.904Z,12.12
2018-04-25T18:43:56.442Z,12.07
2018-04-25T18:46:23.941Z,11.99
2018-04-25T18:48:51.501Z,11.95
2018-04-25T18:51:19.014Z,11.98
2018-04-25T18:53:46.510Z,11.98
2018-04-25T18:56:14.055Z,12.03
2018-04-25T18:58:41.527Z,12.04
2018-04-25T19:01:09.036Z,12.04
2018-04-25T19:03:36.523Z,12.01
2018-04-25T19:06:04.410Z,11.96
2018-04-25T19:08:32.279Z,11.83
2018-04-25T19:10:59.800Z,11.77
2018-04-25T19:13:27.389Z,11.77
2018-04-25T19:15:54.888Z,11.70
2018-04-25T19:18:22.360Z,11.64
2018-04-25T19:20:49.872Z,11.66
2018-04-25T19:23:17.390Z,11.73
2018-04-25T19:25:45.189Z,11.72
2018-04-25T19:28:12.745Z,11.73
2018-04-25T19:30:40.289Z,11.61
2018-04-25T19:33:07.785Z,11.62
2018-04-25T19:35:35.738Z,11.66
2018-04-25T19:52:55.379Z,11.68
2018-04-25T19:55:22.856Z,11.55
2018-04-25T19:57:50.311Z,11.45
2018-04-25T20:00:17.799Z,11.35
2018-04-25T20:02:45.289Z,11.29
2018-04-25T20:05:12.736Z,11.19
2018-04-25T20:07:40.236Z,11.11
2018-04-25T20:10:07.716Z,11.05
2018-04-25T20:12:35.276Z,11.02
2018-04-25T20:15:03.169Z,11.03
2018-04-25T20:17:30.670Z,11.01
2018-04-25T20:19:58.166Z,11.00
2018-04-25T20:22:25.951Z,10.96
2018-04-25T20:24:53.443Z,10.89
2018-04-25T20:27:20.893Z,10.83
2018-04-25T20:29:48.441Z,10.76
2018-04-25T20:32:15.880Z,10.78
2018-04-25T20:34:43.355Z,10.76
2018-04-25T20:37:10.868Z,10.74
2018-04-25T20:39:38.324Z,10.73
2018-04-25T20:42:05.851Z,10.69
2018-04-25T20:44:33.330Z,10.61
2018-04-25T20:47:00.871Z,10.56
2018-04-25T20:49:28.356Z,10.50
2018-04-25T20:51:55.920Z,10.50
2018-04-25T20:54:23.713Z,10.55
2018-04-25T20:56:51.275Z,10.66
2018-04-25T20:59:18.754Z,10.65
2018-04-25T21:01:46.257Z,10.60
2018-04-25T21:04:13.737Z,10.53
2018-04-25T21:06:41.228Z,10.51
2018-04-25T21:09:08.722Z,10.51
2018-04-25T21:11:36.168Z,10.50
2018-04-25T21:14:03.680Z,10.48
2018-04-25T21:16:31.161Z,10.47
2018-04-25T21:18:58.624Z,10.48
2018-04-25T21:21:26.142Z,10.58
2018-04-25T21:23:53.613Z,10.71
2018-04-25T21:26:21.074Z,10.79
2018-04-25T21:28:48.568Z,10.84
2018-04-25T21:31:16.024Z,10.90
2018-04-25T21:33:43.537Z,10.90
2018-04-25T21:36:11.008Z,10.85
2018-04-25T21:38:38.528Z,10.74
2018-04-25T21:41:05.981Z,10.66
2018-04-25T21:43:33.452Z,10.58
2018-04-25T21:46:01.027Z,10.50
2018-04-25T21:48:28.483Z,10.49
2018-04-25T21:50:55.959Z,10.49
2018-04-25T21:53:23.442Z,10.47
2018-04-25T21:55:50.926Z,10.47
2018-04-25T21:58:18.437Z,10.44
2018-04-25T22:00:45.888Z,10.39
2018-04-25T22:03:13.367Z,10.41
2018-04-25T22:05:40.986Z,10.38
2018-04-25T22:08:08.504Z,10.33
2018-04-25T22:10:36.085Z,10.32
2018-04-25T22:13:03.535Z,10.34
2018-04-25T22:15:30.995Z,10.31
2018-04-25T22:17:58.490Z,10.28
2018-04-25T22:20:25.936Z,10.26
2018-04-25T22:22:53.431Z,10.23
2018-04-25T22:25:21.040Z,10.24
2018-04-25T22:27:48.523Z,10.22
2018-04-25T22:30:16.011Z,10.19
2018-04-25T22:32:43.582Z,10.11
2018-04-25T22:35:11.027Z,10.07
2018-04-25T22:37:38.521Z,10.04
2018-04-25T22:40:06.020Z,10.05
2018-04-25T22:42:33.476Z,10.03
2018-04-25T22:45:01.103Z,10.05
2018-04-25T22:47:28.570Z,10.08
2018-04-25T22:49:56.011Z,10.14
2018-04-25T22:52:23.475Z,10.20
2018-04-25T22:54:51.050Z,10.25
2018-04-25T22:57:18.523Z,10.31
2018-04-25T22:59:46.020Z,10.34
2018-04-25T23:02:13.483Z,10.35
2018-04-25T23:04:40.962Z,10.38
2018-04-25T23:07:08.424Z,10.40
2018-04-25T23:09:35.936Z,10.35
2018-04-25T23:12:03.437Z,10.27
2018-04-25T23:14:30.916Z,10.15
2018-04-25T23:16:58.365Z,10.02
2018-04-25T23:19:25.856Z,9.94
2018-04-25T23:21:53.301Z,9.92
2018-04-25T23:24:20.790Z,9.94
2018-04-25T23:26:48.266Z,10.00
2018-04-25T23:29:15.742Z,10.03
2018-04-25T23:31:43.232Z,10.07
2018-04-25T23:34:10.840Z,10.08
2018-04-25T23:36:38.408Z,10.02
2018-04-25T23:39:05.908Z,10.03
2018-04-25T23:41:33.379Z,10.04
2018-04-25T23:44:00.819Z,10.14
2018-04-25T23:46:28.287Z,10.17
2018-04-25T23:48:55.770Z,10.14
2018-04-25T23:51:23.248Z,10.12
2018-04-25T23:53:50.747Z,10.13
2018-04-25T23:56:18.196Z,10.07
2018-04-25T23:58:45.648Z,10.06
